Ana Sayfa
METAR-TAF:

METAR-TAF

Havaalanları :

Flora Municipal Airport

Flora, Illinois, Amerika Birleşik Devletleri

Enlem: 38-39-54N, Boylam: 088-27-11W, yükseklik: 144 m

Güncel hava durumu gözlemi

Rapor saat 12:15 UTC de 21 dakika önce yapıldı.
Rüzgar kuzey/kuzeydoğudan 6 kt
Sıcaklık 17°C
Nem 94%
Basınç 1015 hPa
Görüş mesafesi: 16.1 km
Açık gökyüzü

METAR: KFOA 231215Z AUTO 03006KT 10SM CLR 17/16 A2996 RMK AO2

Saat: 07:36 (12:36 UTC)


TAF: eksik

4.000'den fazla havaalanı için hava durumu gözlemleri ve tahminleri (METAR ve TAF raporları).

Kullanılabilir istasyonlar harita üzerinde sarı ve kırmızı noktalarla gösterilir.

İstasyonun adını görmek için fareyi noktanın üzerinde gezdirin.

Sonrasında hava gözlem ve tahminlerini görmek için tıklayın.

Haritayı değiştirmek için: yaklaştırmak için siyah artı işaretli yeşil düğmeye ve uzaklaştırmak için de eksi işaretli düğmeye hızla tıklayın; bitişik haritalar için yeşil okları kullanın.


METAR-TAF: